Time,TemperatureF,DewpointF,PressureIn,WindDirection,WindDirectionDegrees,WindSpeedMPH,WindSpeedGustMPH,Humidity,HourlyPrecipIn,Conditions,Clouds,dailyrainin,SoftwareType,DateUTC
2013-07-05 00:02:00,67.0,-99.9,-100.00,WNW,298,35.0,43.0,-999,-99.99,,,-99.99,,2013-07-05 07:02:00,
2013-07-05 00:12:00,67.0,-99.9,-100.00,WNW,298,35.0,43.0,-999,-99.99,,,-99.99,,2013-07-05 07:12:00,
2013-07-05 01:03:00,66.0,-99.9,-100.00,WNW,297,30.0,38.0,-999,-99.99,,,-99.99,,2013-07-05 08:03:00,
2013-07-05 01:12:00,66.0,-99.9,-100.00,WNW,297,30.0,38.0,-999,-99.99,,,-99.99,,2013-07-05 08:12:00,
2013-07-05 01:15:00,65.0,-99.9,-100.00,WNW,284,28.0,37.0,-999,-99.99,,,-99.99,,2013-07-05 08:15:00,
2013-07-05 02:09:00,65.0,-99.9,-100.00,WNW,284,28.0,37.0,-999,-99.99,,,-99.99,,2013-07-05 09:09:00,
2013-07-05 02:15:00,63.0,-99.9,-100.00,West,280,27.0,32.0,-999,-99.99,,,-99.99,,2013-07-05 09:15:00,
2013-07-05 03:09:00,63.0,-99.9,-100.00,West,280,27.0,32.0,-999,-99.99,,,-99.99,,2013-07-05 10:09:00,
2013-07-05 03:15:00,63.0,-99.9,-100.00,West,276,22.0,29.0,-999,-99.99,,,-99.99,,2013-07-05 10:15:00,
2013-07-05 04:11:00,63.0,-99.9,-100.00,West,276,22.0,29.0,-999,-99.99,,,-99.99,,2013-07-05 11:11:00,
2013-07-05 05:11:00,62.0,-99.9,-100.00,West,266,18.0,27.0,-999,-99.99,,,-99.99,,2013-07-05 12:11:00,
2013-07-05 06:07:00,62.0,-99.9,-100.00,West,269,16.0,21.0,-999,-99.99,,,-99.99,,2013-07-05 13:07:00,
2013-07-05 06:14:00,62.0,-99.9,-100.00,West,269,16.0,21.0,-999,-99.99,,,-99.99,,2013-07-05 13:14:00,
2013-07-05 07:09:00,61.0,-99.9,-100.00,West,267,13.0,20.0,-999,-99.99,,,-99.99,,2013-07-05 14:09:00,
2013-07-05 07:15:00,63.0,-99.9,-100.00,West,275,10.0,15.0,-999,-99.99,,,-99.99,,2013-07-05 14:15:00,
2013-07-05 08:09:00,63.0,-99.9,-100.00,West,275,10.0,15.0,-999,-99.99,,,-99.99,,2013-07-05 15:09:00,
2013-07-05 09:02:00,66.0,-99.9,-100.00,NW,318,6.0,10.0,-999,-99.99,,,-99.99,,2013-07-05 16:02:00,
2013-07-05 09:11:00,66.0,-99.9,-100.00,NW,318,6.0,10.0,-999,-99.99,,,-99.99,,2013-07-05 16:11:00,
2013-07-05 10:02:00,70.0,-99.9,-100.00,West,262,5.0,12.0,-999,-99.99,,,-99.99,,2013-07-05 17:02:00,
2013-07-05 10:12:00,70.0,-99.9,-100.00,West,262,5.0,12.0,-999,-99.99,,,-99.99,,2013-07-05 17:12:00,
2013-07-05 11:02:00,73.0,-99.9,-100.00,South,189,5.0,12.0,-999,-99.99,,,-99.99,,2013-07-05 18:02:00,
2013-07-05 11:11:00,73.0,-99.9,-100.00,South,189,5.0,12.0,-999,-99.99,,,-99.99,,2013-07-05 18:11:00,
2013-07-05 12:02:00,75.0,-99.9,-100.00,SSW,206,9.0,20.0,-999,-99.99,,,-99.99,,2013-07-05 19:02:00,
2013-07-05 12:12:00,75.0,-99.9,-100.00,SSW,206,9.0,20.0,-999,-99.99,,,-99.99,,2013-07-05 19:12:00,
2013-07-05 13:02:00,77.0,-99.9,-100.00,SSW,207,7.0,15.0,-999,-99.99,,,-99.99,,2013-07-05 20:02:00,
2013-07-05 13:11:00,77.0,-99.9,-100.00,SSW,207,7.0,15.0,-999,-99.99,,,-99.99,,2013-07-05 20:11:00,
2013-07-05 14:02:00,80.0,-99.9,-100.00,West,276,5.0,15.0,-999,-99.99,,,-99.99,,2013-07-05 21:02:00,
2013-07-05 14:12:00,80.0,-99.9,-100.00,West,276,5.0,15.0,-999,-99.99,,,-99.99,,2013-07-05 21:12:00,
2013-07-05 15:02:00,80.0,-99.9,-100.00,WSW,239,8.0,16.0,-999,-99.99,,,-99.99,,2013-07-05 22:02:00,
2013-07-05 15:12:00,80.0,-99.9,-100.00,WSW,239,8.0,16.0,-999,-99.99,,,-99.99,,2013-07-05 22:12:00,
2013-07-05 16:02:00,82.0,-99.9,-100.00,WSW,257,12.0,20.0,-999,-99.99,,,-99.99,,2013-07-05 23:02:00,
2013-07-05 16:11:00,82.0,-99.9,-100.00,WSW,257,12.0,20.0,-999,-99.99,,,-99.99,,2013-07-05 23:11:00,
2013-07-05 17:02:00,83.0,-99.9,-100.00,North,350,12.0,21.0,-999,-99.99,,,-99.99,,2013-07-06 00:02:00,
2013-07-05 17:12:00,83.0,-99.9,-100.00,North,350,12.0,21.0,-999,-99.99,,,-99.99,,2013-07-06 00:12:00,
2013-07-05 18:02:00,84.0,-99.9,-100.00,NNW,328,9.0,22.0,-999,-99.99,,,-99.99,,2013-07-06 01:02:00,
2013-07-05 18:12:00,84.0,-99.9,-100.00,NNW,328,9.0,22.0,-999,-99.99,,,-99.99,,2013-07-06 01:12:00,
2013-07-05 19:02:00,85.0,-99.9,-100.00,WNW,302,8.0,16.0,-999,-99.99,,,-99.99,,2013-07-06 02:02:00,
2013-07-05 19:12:00,85.0,-99.9,-100.00,WNW,302,8.0,16.0,-999,-99.99,,,-99.99,,2013-07-06 02:12:00,
2013-07-05 20:02:00,81.0,-99.9,-100.00,WNW,293,20.0,27.0,-999,-99.99,,,-99.99,,2013-07-06 03:02:00,
2013-07-05 20:12:00,81.0,-99.9,-100.00,WNW,293,20.0,27.0,-999,-99.99,,,-99.99,,2013-07-06 03:12:00,
2013-07-05 21:02:00,76.0,-99.9,-100.00,WNW,300,23.0,29.0,-999,-99.99,,,-99.99,,2013-07-06 04:02:00,
2013-07-05 21:12:00,76.0,-99.9,-100.00,WNW,300,23.0,29.0,-999,-99.99,,,-99.99,,2013-07-06 04:12:00,
2013-07-05 22:02:00,71.0,-99.9,-100.00,NW,314,20.0,27.0,-999,-99.99,,,-99.99,,2013-07-06 05:02:00,
2013-07-05 22:12:00,71.0,-99.9,-100.00,NW,314,20.0,27.0,-999,-99.99,,,-99.99,,2013-07-06 05:12:00,
2013-07-05 23:02:00,70.0,-99.9,-100.00,WNW,298,30.0,38.0,-999,-99.99,,,-99.99,,2013-07-06 06:02:00,
2013-07-05 23:12:00,70.0,-99.9,-100.00,WNW,298,30.0,38.0,-999,-99.99,,,-99.99,,2013-07-06 06:12:00,